createdAt,value
2023-02-19T00:03:41.122Z,2.80
2023-02-19T00:08:44.897Z,3.20
2023-02-19T00:13:50.363Z,4.00
2023-02-19T00:18:54.979Z,2.70
2023-02-19T00:24:01.384Z,3.00
2023-02-19T00:29:04.890Z,4.20
2023-02-19T00:34:08.215Z,9.40
2023-02-19T00:39:15.865Z,4.10
2023-02-19T00:44:19.641Z,3.00
2023-02-19T00:49:23.601Z,3.50
2023-02-19T00:54:26.770Z,2.40
2023-02-19T00:59:29.775Z,2.60
2023-02-19T01:04:32.911Z,3.00
2023-02-19T01:14:39.085Z,2.10
2023-02-19T01:24:45.308Z,3.40
2023-02-19T01:34:51.300Z,2.60
2023-02-19T01:39:54.310Z,3.60
2023-02-19T01:50:23.454Z,3.00
2023-02-19T01:55:26.665Z,3.00
2023-02-19T02:00:30.964Z,2.80
2023-02-19T02:05:46.493Z,2.90
2023-02-19T02:10:51.375Z,2.80
2023-02-19T02:16:23.163Z,2.40
2023-02-19T02:21:46.092Z,2.10
2023-02-19T02:27:01.077Z,2.60
2023-02-19T02:32:10.958Z,2.60
2023-02-19T02:37:16.048Z,2.20
2023-02-19T02:42:28.218Z,2.20
2023-02-19T02:47:44.942Z,2.50
2023-02-19T02:53:11.490Z,2.50
2023-02-19T02:58:16.752Z,2.50
2023-02-19T03:03:24.473Z,2.70
2023-02-19T03:08:31.790Z,2.50
2023-02-19T03:13:57.394Z,2.50
2023-02-19T03:19:20.167Z,2.60
2023-02-19T03:24:47.480Z,2.40
2023-02-19T03:29:54.538Z,1.90
2023-02-19T03:35:04.196Z,2.40
2023-02-19T03:40:08.671Z,2.60
2023-02-19T03:45:19.007Z,2.70
2023-02-19T03:50:44.637Z,2.30
2023-02-19T03:56:06.789Z,2.20
2023-02-19T04:01:20.034Z,2.60
2023-02-19T04:06:29.488Z,1.90
2023-02-19T04:11:33.733Z,2.10
2023-02-19T04:16:42.890Z,2.40
2023-02-19T04:21:47.424Z,2.30
2023-02-19T04:26:50.924Z,2.70
2023-02-19T04:31:53.965Z,1.90
2023-02-19T04:36:57.233Z,2.20
2023-02-19T04:42:00.441Z,2.60
2023-02-19T04:52:06.648Z,2.10
2023-02-19T04:57:09.856Z,3.00
2023-02-19T05:02:13.064Z,2.60
2023-02-19T05:12:19.790Z,2.10
2023-02-19T05:17:23.096Z,2.30
2023-02-19T05:22:26.324Z,2.10
2023-02-19T05:27:31.972Z,2.10
2023-02-19T05:32:35.909Z,2.90
2023-02-19T05:37:39.035Z,2.00
2023-02-19T05:42:42.003Z,2.20
2023-02-19T05:47:45.005Z,2.20
2023-02-19T05:52:48.109Z,2.10
2023-02-19T05:57:51.222Z,2.60
2023-02-19T06:02:54.878Z,3.00
2023-02-19T06:07:58.861Z,2.10
2023-02-19T06:13:02.071Z,2.30
2023-02-19T06:18:05.379Z,2.20
2023-02-19T06:23:08.381Z,2.50
2023-02-19T06:28:11.536Z,2.50
2023-02-19T06:33:14.703Z,2.40
2023-02-19T06:43:20.712Z,2.40
2023-02-19T06:48:23.953Z,2.40
2023-02-19T06:53:27.751Z,2.70
2023-02-19T06:58:32.580Z,2.40
2023-02-19T07:03:35.688Z,2.70
2023-02-19T07:13:42.101Z,2.60
2023-02-19T07:18:46.214Z,2.60
2023-02-19T07:23:50.297Z,2.30
2023-02-19T07:28:54.204Z,2.50
2023-02-19T07:33:58.619Z,2.50
2023-02-19T07:39:02.236Z,2.90
2023-02-19T07:44:06.061Z,2.50
2023-02-19T07:49:09.376Z,2.40
2023-02-19T07:54:13.806Z,2.40
2023-02-19T07:59:19.895Z,2.30
2023-02-19T08:04:22.993Z,2.60
2023-02-19T08:14:30.032Z,2.80
2023-02-19T08:19:33.333Z,2.30
2023-02-19T08:24:39.711Z,3.10
2023-02-19T08:29:42.918Z,3.00
2023-02-19T08:39:49.129Z,2.40
2023-02-19T08:44:52.235Z,2.50
2023-02-19T08:49:55.361Z,2.70
2023-02-19T08:54:58.661Z,2.40
2023-02-19T09:00:01.953Z,3.20
2023-02-19T09:05:08.548Z,2.70
2023-02-19T09:10:14.367Z,4.00
2023-02-19T09:15:19.718Z,3.80
2023-02-19T09:20:23.219Z,2.80
2023-02-19T09:25:27.727Z,2.50
2023-02-19T09:30:30.872Z,2.60
2023-02-19T09:40:38.583Z,2.60
2023-02-19T09:45:42.098Z,2.50
2023-02-19T09:50:48.897Z,2.70
2023-02-19T09:55:53.527Z,3.70
2023-02-19T10:00:59.062Z,3.50
2023-02-19T10:06:11.147Z,2.00
2023-02-19T10:11:16.152Z,2.50
2023-02-19T10:16:25.196Z,2.90
2023-02-19T10:21:29.020Z,3.10
2023-02-19T10:26:35.599Z,2.60
2023-02-19T10:31:39.682Z,2.50
2023-02-19T10:36:45.530Z,2.20
2023-02-19T10:41:51.228Z,2.50
2023-02-19T10:46:57.727Z,2.90
2023-02-19T10:52:18.010Z,2.80
2023-02-19T10:57:30.694Z,2.70
2023-02-19T11:02:34.207Z,3.20
2023-02-19T11:07:39.162Z,1.80
2023-02-19T11:12:48.099Z,2.90
2023-02-19T11:18:08.508Z,2.60
2023-02-19T11:23:18.951Z,2.40
2023-02-19T11:28:32.852Z,2.30
2023-02-19T11:33:35.952Z,2.30
2023-02-19T11:43:51.277Z,2.70
2023-02-19T11:49:30.540Z,3.30
2023-02-19T11:54:54.817Z,2.00
2023-02-19T12:00:30.637Z,8.30
2023-02-19T12:05:56.952Z,3.00
2023-02-19T12:11:05.186Z,2.90
2023-02-19T12:16:39.825Z,2.90
2023-02-19T12:22:12.633Z,2.10
2023-02-19T12:27:29.202Z,2.30
2023-02-19T12:32:50.069Z,7.70
2023-02-19T12:38:12.116Z,19.80
2023-02-19T12:43:24.863Z,2.40
2023-02-19T12:48:40.137Z,1.70
2023-02-19T12:53:53.183Z,2.30
2023-02-19T12:59:04.039Z,4.10
2023-02-19T13:04:37.468Z,1.70
2023-02-19T13:09:56.267Z,2.00
2023-02-19T13:15:05.409Z,1.70
2023-02-19T13:20:23.758Z,2.20
2023-02-19T13:25:50.323Z,1.70
2023-02-19T13:31:00.674Z,2.00
2023-02-19T13:36:16.910Z,2.80
2023-02-19T13:41:30.154Z,2.30
2023-02-19T13:46:38.322Z,1.70
2023-02-19T13:51:51.638Z,2.70
2023-02-19T13:57:26.130Z,132.30
2023-02-19T14:02:33.417Z,24.10
2023-02-19T14:07:49.601Z,4.40
2023-02-19T14:12:53.304Z,49.70
2023-02-19T14:17:57.442Z,7.70
2023-02-19T14:23:09.850Z,19.10
2023-02-19T14:28:18.910Z,6.00
2023-02-19T14:33:28.455Z,13.60
2023-02-19T14:39:01.151Z,4.00
2023-02-19T14:44:13.365Z,13.40
2023-02-19T14:49:26.407Z,3.30
2023-02-19T14:54:41.298Z,4.00
2023-02-19T15:00:00.620Z,4.90
2023-02-19T15:05:26.319Z,2.90
2023-02-19T15:10:32.658Z,3.90
2023-02-19T15:15:41.212Z,2.60
2023-02-19T15:20:45.057Z,13.90
2023-02-19T15:25:52.753Z,38.00
2023-02-19T15:30:59.517Z,18.70
2023-02-19T15:36:07.078Z,31.80
2023-02-19T15:41:22.099Z,13.00
2023-02-19T15:46:26.970Z,31.80
2023-02-19T15:51:43.531Z,26.80
2023-02-19T15:56:50.984Z,16.40
2023-02-19T16:01:54.859Z,10.60
2023-02-19T16:07:03.392Z,6.30
2023-02-19T16:12:24.381Z,10.10
2023-02-19T16:17:28.962Z,12.00
2023-02-19T16:22:41.088Z,7.30
2023-02-19T16:27:44.899Z,26.00
2023-02-19T16:32:48.103Z,19.60
2023-02-19T16:43:04.558Z,16.90
2023-02-19T16:48:09.357Z,10.70
2023-02-19T16:53:20.505Z,7.90
2023-02-19T16:58:25.749Z,4.40
2023-02-19T17:03:29.159Z,5.20
2023-02-19T17:08:39.039Z,5.80
2023-02-19T17:13:43.638Z,11.80
2023-02-19T17:18:47.281Z,18.00
2023-02-19T17:23:50.696Z,37.90
2023-02-19T17:29:02.517Z,50.40
2023-02-19T17:34:06.025Z,12.40
2023-02-19T17:39:15.669Z,5.40
2023-02-19T17:44:18.915Z,4.40
2023-02-19T17:54:27.663Z,8.80
2023-02-19T17:59:32.305Z,7.80
2023-02-19T18:04:37.020Z,3.80
2023-02-19T18:09:41.794Z,3.00
2023-02-19T18:14:48.380Z,4.50
2023-02-19T18:19:53.436Z,6.50
2023-02-19T18:24:56.852Z,3.40
2023-02-19T18:30:00.518Z,4.60
2023-02-19T18:35:06.089Z,2.40
2023-02-19T18:40:13.947Z,3.20
2023-02-19T18:45:23.200Z,120.00
2023-02-19T18:50:28.640Z,792.90
2023-02-19T18:55:35.960Z,683.40
2023-02-19T19:00:41.827Z,587.70
2023-02-19T19:05:46.392Z,195.80
2023-02-19T19:10:50.817Z,109.90
2023-02-19T19:15:54.405Z,92.10
2023-02-19T19:21:03.779Z,66.30
2023-02-19T19:26:07.607Z,108.20
2023-02-19T19:31:14.403Z,137.40
2023-02-19T19:36:23.317Z,106.30
2023-02-19T19:41:26.966Z,36.30
2023-02-19T19:46:31.787Z,102.60
2023-02-19T19:51:36.140Z,83.90
2023-02-19T19:56:45.053Z,65.10
2023-02-19T20:01:53.182Z,61.70
2023-02-19T20:06:59.747Z,222.40
2023-02-19T20:12:03.916Z,74.10
2023-02-19T20:17:09.786Z,55.30
2023-02-19T20:22:12.892Z,34.20
2023-02-19T20:27:16.120Z,98.40
2023-02-19T20:32:19.349Z,55.20
2023-02-19T20:37:24.357Z,61.60
2023-02-19T20:42:29.519Z,65.00
2023-02-19T20:47:34.667Z,68.70
2023-02-19T20:52:37.978Z,52.30
2023-02-19T20:57:41.494Z,39.70
2023-02-19T21:07:49.861Z,27.40
2023-02-19T21:12:54.561Z,15.20
2023-02-19T21:17:57.908Z,8.80
2023-02-19T21:23:02.502Z,5.00
2023-02-19T21:28:09.445Z,5.20
2023-02-19T21:33:13.573Z,5.90
2023-02-19T21:38:16.989Z,28.10
2023-02-19T21:43:20.431Z,10.30
2023-02-19T21:48:24.331Z,8.90
2023-02-19T21:53:28.249Z,5.70
2023-02-19T21:58:31.456Z,16.30
2023-02-19T22:08:37.667Z,5.10
2023-02-19T22:13:40.874Z,4.10
2023-02-19T22:18:51.883Z,5.40
2023-02-19T22:23:55.585Z,4.80
2023-02-19T22:28:59.865Z,2.90
2023-02-19T22:34:03.131Z,5.00
2023-02-19T22:39:08.990Z,4.10
2023-02-19T22:44:12.705Z,4.50
2023-02-19T22:49:16.233Z,2.80
2023-02-19T22:54:25.171Z,2.80
2023-02-19T22:59:28.176Z,2.70
2023-02-19T23:04:31.582Z,2.50
2023-02-19T23:09:34.698Z,2.80
2023-02-19T23:14:38.115Z,4.50
2023-02-19T23:19:41.222Z,3.20
2023-02-19T23:24:44.634Z,2.90
2023-02-19T23:34:51.565Z,2.90
2023-02-19T23:39:54.616Z,2.10
2023-02-19T23:44:57.778Z,2.50
2023-02-19T23:50:01.286Z,2.40
2023-02-19T23:55:05.926Z,2.10
